Time;durP1;ratioP1;P1;durP2;ratioP2;P2;SDS_P1;SDS_P2;PMS_P1;PMS_P2;Temp;Humidity;BMP_temperature;BMP_pressure;BME280_temperature;BME280_humidity;BME280_pressure;Samples;Min_cycle;Max_cycle;Signal;HPM_P1;HPM_P2
2022/12/18 07:18:04;;;;;;;24.95;12.30;;;;;;;;;;4259241;27;20324;-47
2022/12/18 07:19:05;;;;;;;17.33;8.82;;;;;;;;;;2129779;27;20474;-48
2022/12/18 07:20:06;;;;;;;19.73;8.77;;;;;;;;;;2129967;27;20049;-47
2022/12/18 07:21:08;;;;;;;19.75;9.00;;;;;;;;;;2129699;27;20049;-47
2022/12/18 07:22:09;;;;;;;;;;;;;;;;;;2130369;27;20107;-47
2022/12/18 07:23:10;;;;;;;17.08;7.75;;;;;;;;;;2129837;27;19988;-47
2022/12/18 07:24:11;;;;;;;18.85;9.65;;;;;;;;;;2129826;27;20636;-48
2022/12/18 07:25:12;;;;;;;22.95;10.25;;;;;;;;;;2122936;27;20139;-47
2022/12/18 07:26:14;;;;;;;17.92;8.57;;;;;;;;;;2121120;28;20044;-47
2022/12/18 07:27:15;;;;;;;18.10;10.00;;;;;;;;;;2121407;28;20043;-47
2022/12/18 07:28:16;;;;;;;19.35;10.10;;;;;;;;;;2121344;28;20039;-47
2022/12/18 07:29:18;;;;;;;19.17;9.35;;;;;;;;;;2121216;28;20451;-47
2022/12/18 07:30:19;;;;;;;16.65;9.05;;;;;;;;;;2121288;28;20062;-46
2022/12/18 07:31:21;;;;;;;18.60;8.68;;;;;;;;;;2121129;28;20055;-50
2022/12/18 07:32:22;;;;;;;20.42;10.07;;;;;;;;;;2121201;28;20058;-48
2022/12/18 07:33:24;;;;;;;23.67;10.53;;;;;;;;;;2121168;28;20047;-48
2022/12/18 07:34:25;;;;;;;20.70;10.20;;;;;;;;;;2121273;28;20043;-48
2022/12/18 07:35:26;;;;;;;20.63;10.13;;;;;;;;;;2121344;28;20045;-47
2022/12/18 07:36:27;;;;;;;19.60;10.80;;;;;;;;;;2121046;28;20307;-47
2022/12/18 07:37:28;;;;;;;22.85;11.82;;;;;;;;;;2121165;28;20462;-46
2022/12/18 07:38:29;;;;;;;17.92;8.93;;;;;;;;;;2121186;28;20047;-47
2022/12/18 07:39:32;;;;;;;18.52;9.68;;;;;;;;;;2121248;28;20108;-43
2022/12/18 07:40:32;;;;;;;23.35;11.77;;;;;;;;;;2121262;28;20047;-43
2022/12/18 07:41:34;;;;;;;25.27;11.27;;;;;;;;;;2121778;27;20048;-43
2022/12/18 07:42:35;;;;;;;21.40;10.27;;;;;;;;;;2129591;27;20426;-43
2022/12/18 07:43:37;;;;;;;18.92;10.27;;;;;;;;;;2129681;27;20042;-43
2022/12/18 07:44:38;;;;;;;;;;;;;;;;;;2130276;27;20074;-43
2022/12/18 07:45:42;;;;;;;18.27;9.20;;;;;;;;;;2129492;27;20252;-43
2022/12/18 07:46:43;;;;;;;18.42;9.32;;;;;;;;;;2129633;27;20213;-42
2022/12/18 07:47:44;;;;;;;19.20;8.63;;;;;;;;;;2129694;27;20050;-43
2022/12/18 07:48:46;;;;;;;22.30;10.38;;;;;;;;;;2129726;27;20387;-43
2022/12/18 07:49:51;;;;;;;19.95;9.27;;;;;;;;;;2129820;27;20039;-43
2022/12/18 07:50:52;;;;;;;21.90;10.15;;;;;;;;;;2129568;27;20047;-43
2022/12/18 07:51:54;;;;;;;25.85;11.20;;;;;;;;;;2129586;27;20043;-43
2022/12/18 07:52:55;;;;;;;18.25;8.77;;;;;;;;;;2129583;27;20050;-43
2022/12/18 07:53:57;;;;;;;19.55;9.98;;;;;;;;;;2129711;27;20054;-43
2022/12/18 07:54:58;;;;;;;22.77;10.10;;;;;;;;;;2129637;27;20043;-43
2022/12/18 07:56:00;;;;;;;19.38;10.48;;;;;;;;;;2129616;27;20064;-43
2022/12/18 07:57:21;;;;;;;21.50;10.35;;;;;;;;;;2129794;27;20042;-43
2022/12/18 07:58:44;;;;;;;16.58;8.10;;;;;;;;;;2129599;27;20084;-43
2022/12/18 07:59:45;;;;;;;21.33;9.45;;;;;;;;;;2129569;27;20043;-43
2022/12/18 08:00:46;;;;;;;17.75;9.30;;;;;;;;;;2129695;27;20054;-43
2022/12/18 08:01:48;;;;;;;19.60;8.25;;;;;;;;;;2129494;27;20039;-43
2022/12/18 08:02:49;;;;;;;26.50;14.10;;;;;;;;;;2129699;27;20078;-43
2022/12/18 08:03:51;;;;;;;25.00;13.18;;;;;;;;;;2129507;27;20050;-42
2022/12/18 08:04:53;;;;;;;25.58;14.70;;;;;;;;;;2129624;27;20043;-43
2022/12/18 08:05:57;;;;;;;26.08;14.32;;;;;;;;;;2129515;27;20053;-43
2022/12/18 08:06:59;;;;;;;22.00;12.65;;;;;;;;;;2129500;27;20043;-43
2022/12/18 08:08:00;;;;;;;24.13;12.88;;;;;;;;;;2129525;27;20559;-43
2022/12/18 08:09:01;;;;;;;25.17;15.45;;;;;;;;;;2129487;27;20074;-43
2022/12/18 08:10:02;;;;;;;27.17;15.63;;;;;;;;;;2129415;27;20051;-43
2022/12/18 08:11:04;;;;;;;27.85;15.93;;;;;;;;;;2129429;27;20074;-43
2022/12/18 08:12:05;;;;;;;26.17;15.45;;;;;;;;;;2129472;27;20399;-43
2022/12/18 08:13:06;;;;;;;22.27;12.27;;;;;;;;;;2129384;27;20483;-43
2022/12/18 08:14:07;;;;;;;23.13;12.80;;;;;;;;;;2129696;27;20126;-43
2022/12/18 08:15:09;;;;;;;60.22;28.75;;;;;;;;;;2129754;27;20057;-48
2022/12/18 08:16:10;;;;;;;77.18;32.58;;;;;;;;;;2124226;27;20388;-47
2022/12/18 08:17:11;;;;;;;63.78;30.83;;;;;;;;;;2120607;28;20079;-49
2022/12/18 08:18:12;;;;;;;63.08;30.35;;;;;;;;;;2114609;28;20079;-48
2022/12/18 08:19:15;;;;;;;72.40;35.60;;;;;;;;;;2115189;28;20070;-48
2022/12/18 08:20:18;;;;;;;51.08;23.73;;;;;;;;;;2115217;28;20109;-47
2022/12/18 08:21:20;;;;;;;53.88;26.55;;;;;;;;;;2115156;28;20476;-49
2022/12/18 08:22:22;;;;;;;39.78;22.42;;;;;;;;;;2115067;28;20052;-47
2022/12/18 08:23:23;;;;;;;34.78;18.30;;;;;;;;;;2115179;28;20393;-49
2022/12/18 08:24:29;;;;;;;27.98;16.00;;;;;;;;;;2115173;28;20093;-48
2022/12/18 08:25:30;;;;;;;40.92;20.88;;;;;;;;;;2115267;28;20048;-48
2022/12/18 08:26:31;;;;;;;24.15;13.85;;;;;;;;;;2115174;28;20055;-47
2022/12/18 08:27:32;;;;;;;20.15;12.13;;;;;;;;;;2115341;28;20055;-48
2022/12/18 08:28:33;;;;;;;23.90;12.77;;;;;;;;;;2115244;28;20499;-47
2022/12/18 08:29:34;;;;;;;28.40;18.42;;;;;;;;;;2115378;28;20070;-46
2022/12/18 08:30:36;;;;;;;22.55;11.65;;;;;;;;;;2115247;28;20134;-47
2022/12/18 08:31:37;;;;;;;20.35;12.05;;;;;;;;;;2115052;28;20043;-49
2022/12/18 08:32:38;;;;;;;22.88;11.57;;;;;;;;;;2115292;28;20043;-47
2022/12/18 08:33:41;;;;;;;26.80;11.73;;;;;;;;;;2115336;28;20476;-48
2022/12/18 08:34:43;;;;;;;23.35;13.63;;;;;;;;;;2115063;28;20476;-47
2022/12/18 08:35:44;;;;;;;17.50;10.65;;;;;;;;;;2115121;28;20047;-48
2022/12/18 08:36:46;;;;;;;19.83;10.73;;;;;;;;;;2115278;28;20055;-42
2022/12/18 08:37:47;;;;;;;19.63;11.27;;;;;;;;;;2114992;28;20043;-43
2022/12/18 08:38:48;;;;;;;18.38;9.68;;;;;;;;;;2115199;28;20402;-42
2022/12/18 08:39:49;;;;;;;19.23;10.18;;;;;;;;;;2115307;28;20079;-47
2022/12/18 08:40:54;;;;;;;17.55;9.18;;;;;;;;;;2115009;28;20059;-47
2022/12/18 08:44:41;;;;;;;18.95;9.90;;;;;;;;;;2115351;28;20043;-42
2022/12/18 08:45:41;;;;;;;19.77;9.90;;;;;;;;;;2115092;28;20530;-42
2022/12/18 08:46:43;;;;;;;18.67;8.60;;;;;;;;;;2114927;28;20075;-42
2022/12/18 08:47:44;;;;;;;20.55;11.55;;;;;;;;;;2115202;28;20311;-43
2022/12/18 08:48:47;;;;;;;17.33;9.85;;;;;;;;;;2115070;28;20090;-42
2022/12/18 08:49:49;;;;;;;18.52;9.93;;;;;;;;;;2114910;28;20039;-42
2022/12/18 08:50:59;;;;;;;18.30;9.70;;;;;;;;;;2115096;28;20048;-42
2022/12/18 08:52:00;;;;;;;19.08;10.30;;;;;;;;;;2115130;28;20044;-42
2022/12/18 08:53:01;;;;;;;23.85;11.05;;;;;;;;;;2114942;28;20058;-42
2022/12/18 08:54:03;;;;;;;25.38;12.18;;;;;;;;;;2115284;28;20051;-42
2022/12/18 08:55:07;;;;;;;23.48;11.23;;;;;;;;;;2114909;28;20455;-42
2022/12/18 08:56:08;;;;;;;;;;;;;;;;;;2115213;28;20374;-42
2022/12/18 08:57:09;;;;;;;20.92;12.82;;;;;;;;;;2115000;28;19983;-42
2022/12/18 08:58:11;;;;;;;21.50;10.77;;;;;;;;;;2115006;28;20093;-42
2022/12/18 08:59:12;;;;;;;22.42;12.80;;;;;;;;;;2115008;28;20519;-42
2022/12/18 09:00:20;;;;;;;21.70;10.93;;;;;;;;;;2114986;28;20463;-42
2022/12/18 09:01:21;;;;;;;21.08;10.88;;;;;;;;;;2114984;28;20047;-43
2022/12/18 09:02:23;;;;;;;19.27;9.35;;;;;;;;;;2115032;28;20059;-41
2022/12/18 09:03:24;;;;;;;18.60;10.52;;;;;;;;;;2114950;28;20046;-43
2022/12/18 09:04:25;;;;;;;17.10;9.48;;;;;;;;;;2114939;28;20048;-42
2022/12/18 09:05:27;;;;;;;21.88;11.10;;;;;;;;;;2115041;28;20044;-42
2022/12/18 09:06:28;;;;;;;24.83;12.82;;;;;;;;;;2114981;28;20050;-42
2022/12/18 09:07:29;;;;;;;23.83;11.90;;;;;;;;;;2114783;28;20079;-43
2022/12/18 09:08:30;;;;;;;22.42;12.80;;;;;;;;;;2115207;28;20048;-42
2022/12/18 09:09:31;;;;;;;23.10;11.83;;;;;;;;;;2115158;28;20476;-43
2022/12/18 09:10:32;;;;;;;22.98;12.13;;;;;;;;;;2114790;28;20407;-42
2022/12/18 09:11:33;;;;;;;23.02;11.30;;;;;;;;;;2114848;28;20051;-43
2022/12/18 09:12:34;;;;;;;24.98;12.80;;;;;;;;;;2121342;28;20039;-46
2022/12/18 09:13:35;;;;;;;31.93;19.07;;;;;;;;;;2123313;28;20043;-47
2022/12/18 09:14:36;;;;;;;51.30;27.48;;;;;;;;;;2123395;28;20526;-48
2022/12/18 09:15:40;;;;;;;45.83;23.40;;;;;;;;;;2123018;28;20043;-47
2022/12/18 09:16:41;;;;;;;68.57;36.05;;;;;;;;;;2114718;28;20055;-49
2022/12/18 09:17:42;;;;;;;123.78;60.53;;;;;;;;;;2114997;28;20040;-50
2022/12/18 09:18:44;;;;;;;45.22;24.38;;;;;;;;;;2114807;28;20373;-49
2022/12/18 09:19:45;;;;;;;94.80;45.88;;;;;;;;;;2114698;28;20399;-48
2022/12/18 09:20:47;;;;;;;129.27;62.47;;;;;;;;;;2114872;28;20032;-48
2022/12/18 09:21:48;;;;;;;72.53;35.88;;;;;;;;;;2114830;28;20043;-48
2022/12/18 09:22:49;;;;;;;141.05;69.70;;;;;;;;;;2114616;28;20403;-50
2022/12/18 09:23:51;;;;;;;79.22;36.92;;;;;;;;;;2114967;28;20043;-48
2022/12/18 09:24:52;;;;;;;64.43;33.17;;;;;;;;;;2114790;28;20054;-47
2022/12/18 09:25:58;;;;;;;60.37;28.33;;;;;;;;;;2114647;28;20478;-47
2022/12/18 09:26:59;;;;;;;73.65;34.65;;;;;;;;;;2114697;28;20085;-48
2022/12/18 09:28:01;;;;;;;59.42;33.88;;;;;;;;;;2114884;28;20047;-49
2022/12/18 09:29:02;;;;;;;35.78;18.67;;;;;;;;;;2114550;28;20054;-47
2022/12/18 09:30:04;;;;;;;66.88;32.25;;;;;;;;;;2114046;28;20536;-49
2022/12/18 09:31:07;;;;;;;49.22;27.13;;;;;;;;;;2114629;28;20048;-47
2022/12/18 09:32:08;;;;;;;62.22;35.38;;;;;;;;;;2114942;28;20127;-42
2022/12/18 09:33:09;;;;;;;37.75;22.20;;;;;;;;;;2114875;28;20048;-42
2022/12/18 09:34:10;;;;;;;39.37;25.43;;;;;;;;;;2114733;28;20044;-43
2022/12/18 09:35:11;;;;;;;24.60;16.10;;;;;;;;;;2115062;28;20066;-42
2022/12/18 09:36:14;;;;;;;27.65;18.58;;;;;;;;;;2114699;28;20149;-42
2022/12/18 09:37:15;;;;;;;20.77;14.38;;;;;;;;;;2114781;28;20048;-42
2022/12/18 09:38:17;;;;;;;19.45;9.80;;;;;;;;;;2114812;28;20120;-42
2022/12/18 09:39:18;;;;;;;21.67;13.95;;;;;;;;;;2114707;28;20039;-42
2022/12/18 09:40:25;;;;;;;24.55;17.35;;;;;;;;;;2114584;28;20530;-42
2022/12/18 09:41:36;;;;;;;21.52;14.38;;;;;;;;;;2114484;28;20044;-42
2022/12/18 09:42:37;;;;;;;28.20;20.92;;;;;;;;;;2114684;28;20484;-42
2022/12/18 09:43:41;;;;;;;20.80;12.48;;;;;;;;;;2114807;28;20040;-42
2022/12/18 09:44:46;;;;;;;20.77;13.80;;;;;;;;;;2114835;28;20251;-42
2022/12/18 09:45:51;;;;;;;18.10;11.98;;;;;;;;;;2114604;28;20039;-42
2022/12/18 09:47:04;;;;;;;34.53;24.15;;;;;;;;;;2114747;28;20047;-42
2022/12/18 09:48:05;;;;;;;;;;;;;;;;;;2114071;28;20411;-42
2022/12/18 09:49:10;;;;;;;20.92;13.30;;;;;;;;;;2114592;28;19920;-42
2022/12/18 09:50:19;;;;;;;21.35;13.65;;;;;;;;;;2114773;28;20047;-47
2022/12/18 09:51:24;;;;;;;18.95;11.68;;;;;;;;;;2114647;28;20051;-46
2022/12/18 09:52:27;;;;;;;20.83;12.35;;;;;;;;;;2114557;28;20039;-46
2022/12/18 09:53:31;;;;;;;15.90;9.45;;;;;;;;;;2114669;28;20488;-46
2022/12/18 09:54:36;;;;;;;22.40;14.75;;;;;;;;;;2114545;28;20048;-47
2022/12/18 09:55:38;;;;;;;17.90;11.88;;;;;;;;;;2114544;28;20082;-47
2022/12/18 09:56:41;;;;;;;24.05;14.88;;;;;;;;;;2114356;28;20059;-46
2022/12/18 09:57:45;;;;;;;19.98;13.63;;;;;;;;;;2114655;28;20307;-47
2022/12/18 09:58:49;;;;;;;18.88;12.23;;;;;;;;;;2114657;28;20043;-48
2022/12/18 09:59:53;;;;;;;16.48;9.15;;;;;;;;;;2114617;28;20055;-46
2022/12/18 10:00:54;;;;;;;16.83;10.27;;;;;;;;;;2114424;28;20044;-46
2022/12/18 10:01:56;;;;;;;31.52;15.40;;;;;;;;;;2114509;28;20044;-46
2022/12/18 10:02:59;;;;;;;18.60;11.48;;;;;;;;;;2114673;28;20043;-47
2022/12/18 10:04:00;;;;;;;16.67;9.93;;;;;;;;;;2114549;28;20399;-46
2022/12/18 10:05:12;;;;;;;18.25;11.00;;;;;;;;;;2114506;28;20563;-44
2022/12/18 10:06:15;;;;;;;18.65;10.70;;;;;;;;;;2114584;28;20051;-47
2022/12/18 10:07:20;;;;;;;23.25;11.55;;;;;;;;;;2114591;28;20051;-48
2022/12/18 10:08:24;;;;;;;19.10;10.23;;;;;;;;;;2114391;28;20058;-48
2022/12/18 10:09:28;;;;;;;17.75;11.00;;;;;;;;;;2114459;28;20480;-47
2022/12/18 10:10:33;;;;;;;19.67;11.85;;;;;;;;;;2114398;28;20059;-47
2022/12/18 10:11:38;;;;;;;17.27;11.35;;;;;;;;;;2114261;28;20043;-48
2022/12/18 10:12:42;;;;;;;18.42;11.13;;;;;;;;;;2114498;28;20108;-51
2022/12/18 10:13:47;;;;;;;19.52;12.05;;;;;;;;;;2114529;28;20039;-50
2022/12/18 10:14:51;;;;;;;18.80;13.27;;;;;;;;;;2114446;28;20097;-51
2022/12/18 10:15:58;;;;;;;18.30;11.90;;;;;;;;;;2114237;28;20051;-51
2022/12/18 10:17:00;;;;;;;18.73;10.30;;;;;;;;;;2114330;28;20043;-48
2022/12/18 10:18:01;;;;;;;;;;;;;;;;;;2114836;28;20063;-46
2022/12/18 10:19:12;;;;;;;17.88;10.45;;;;;;;;;;2114355;28;19959;-47
2022/12/18 10:20:16;;;;;;;24.83;14.93;;;;;;;;;;2114445;28;20404;-46
2022/12/18 10:21:19;;;;;;;19.33;11.55;;;;;;;;;;2114258;28;20104;-48
2022/12/18 10:22:31;;;;;;;18.40;10.68;;;;;;;;;;2114363;28;20047;-47
2022/12/18 10:23:33;;;;;;;19.83;12.02;;;;;;;;;;2114442;28;20044;-47
2022/12/18 10:24:39;;;;;;;20.23;13.63;;;;;;;;;;2114426;28;20052;-46
2022/12/18 10:25:45;;;;;;;17.75;10.70;;;;;;;;;;2114504;28;21091;-47
2022/12/18 10:26:47;;;;;;;14.90;8.73;;;;;;;;;;2114304;28;20053;-47
2022/12/18 10:27:49;;;;;;;18.88;10.13;;;;;;;;;;2114578;28;20052;-46
2022/12/18 10:28:51;;;;;;;17.83;10.10;;;;;;;;;;2114472;28;20040;-46
2022/12/18 10:29:53;;;;;;;17.40;10.48;;;;;;;;;;2114264;28;20059;-47
2022/12/18 10:30:54;;;;;;;;;;;;;;;;;;2114692;28;20488;-46
2022/12/18 10:31:55;;;;;;;19.42;10.27;;;;;;;;;;2114472;28;19924;-46
2022/12/18 10:33:00;;;;;;;14.87;8.17;;;;;;;;;;2114342;28;20039;-47
2022/12/18 10:34:01;;;;;;;19.77;9.32;;;;;;;;;;2114498;28;20047;-47
2022/12/18 10:35:03;;;;;;;17.98;8.80;;;;;;;;;;2114361;28;20052;-47
2022/12/18 10:36:06;;;;;;;17.45;8.35;;;;;;;;;;2114469;28;20504;-47
2022/12/18 10:37:12;;;;;;;17.38;9.05;;;;;;;;;;2114193;28;20446;-46
2022/12/18 10:38:24;;;;;;;16.70;8.90;;;;;;;;;;2114567;28;20407;-46
2022/12/18 10:39:26;;;;;;;17.90;9.13;;;;;;;;;;2114212;28;20091;-47
2022/12/18 10:40:26;;;;;;;22.48;10.63;;;;;;;;;;2114268;28;20101;-48
2022/12/18 10:41:28;;;;;;;18.30;9.48;;;;;;;;;;2114228;28;20553;-42
2022/12/18 10:42:30;;;;;;;19.30;9.50;;;;;;;;;;2114139;28;20050;-42
2022/12/18 10:43:32;;;;;;;17.97;9.40;;;;;;;;;;2114253;28;20044;-42
2022/12/18 10:44:33;;;;;;;19.95;9.60;;;;;;;;;;2114222;28;20530;-42
2022/12/18 10:45:34;;;;;;;18.07;10.83;;;;;;;;;;2114169;28;20134;-42
2022/12/18 10:46:36;;;;;;;18.77;9.32;;;;;;;;;;2114146;28;20101;-43
2022/12/18 10:47:41;;;;;;;17.58;9.30;;;;;;;;;;2114362;28;20389;-43
2022/12/18 10:48:50;;;;;;;15.55;7.82;;;;;;;;;;2114178;28;20051;-42
2022/12/18 10:49:54;;;;;;;17.67;9.05;;;;;;;;;;2114232;28;20120;-42
2022/12/18 10:50:56;;;;;;;17.40;10.40;;;;;;;;;;2114119;28;20054;-42
2022/12/18 10:52:16;;;;;;;18.83;10.25;;;;;;;;;;2114368;28;20052;-42
2022/12/18 10:53:20;;;;;;;16.23;8.52;;;;;;;;;;2114175;28;20376;-42
2022/12/18 10:54:22;;;;;;;17.00;8.85;;;;;;;;;;2114248;28;20047;-42
2022/12/18 10:55:27;;;;;;;16.00;9.23;;;;;;;;;;2114144;28;20373;-42
2022/12/18 10:56:29;;;;;;;15.52;8.30;;;;;;;;;;2114064;28;20503;-42
2022/12/18 10:57:32;;;;;;;12.85;7.60;;;;;;;;;;2114132;28;20097;-42
2022/12/18 10:58:34;;;;;;;17.33;9.07;;;;;;;;;;2114290;28;20070;-42
2022/12/18 10:59:35;;;;;;;;;;;;;;;;;;2114635;28;20050;-42
2022/12/18 11:00:36;;;;;;;15.05;7.80;;;;;;;;;;2114334;28;19920;-42
2022/12/18 11:01:50;;;;;;;16.63;8.68;;;;;;;;;;2114023;28;20083;-42
2022/12/18 11:02:51;;;;;;;16.30;8.73;;;;;;;;;;2114376;28;20043;-42
2022/12/18 11:04:00;;;;;;;17.55;8.35;;;;;;;;;;2114234;28;20104;-42
2022/12/18 11:05:22;;;;;;;16.35;8.30;;;;;;;;;;2114208;28;20055;-47
2022/12/18 11:06:24;;;;;;;15.65;8.27;;;;;;;;;;2114058;28;20609;-48
2022/12/18 11:07:25;;;;;;;;;;;;;;;;;;2114833;28;20097;-47
2022/12/18 11:08:26;;;;;;;10.93;6.00;;;;;;;;;;2114133;28;19931;-47
2022/12/18 11:09:29;;;;;;;13.68;7.07;;;;;;;;;;2114230;28;20055;-46
2022/12/18 11:10:32;;;;;;;13.45;6.85;;;;;;;;;;2114081;28;20051;-49
2022/12/18 11:11:33;;;;;;;14.68;7.78;;;;;;;;;;2113964;28;20055;-46
2022/12/18 11:12:34;;;;;;;15.77;8.02;;;;;;;;;;2113980;28;20504;-47
2022/12/18 11:13:35;;;;;;;13.60;7.15;;;;;;;;;;2114032;28;20036;-46
2022/12/18 11:14:42;;;;;;;14.05;7.35;;;;;;;;;;2114254;28;20107;-46
2022/12/18 11:15:48;;;;;;;15.27;8.15;;;;;;;;;;2113794;28;20043;-46
2022/12/18 11:16:51;;;;;;;15.70;7.35;;;;;;;;;;2114036;28;20445;-46
2022/12/18 11:18:12;;;;;;;;;;;;;;;;;;2114343;28;20044;-46
2022/12/18 11:19:19;;;;;;;12.38;6.43;;;;;;;;;;2114478;28;19919;-46
2022/12/18 11:20:27;;;;;;;15.38;7.43;;;;;;;;;;2114047;28;20427;-46
2022/12/18 11:21:28;;;;;;;15.15;8.30;;;;;;;;;;2114016;28;20484;-46
2022/12/18 11:22:30;;;;;;;13.20;7.00;;;;;;;;;;2114571;28;20047;-42
2022/12/18 11:23:31;;;;;;;13.23;7.00;;;;;;;;;;2114055;28;20044;-42
2022/12/18 11:24:34;;;;;;;17.92;7.75;;;;;;;;;;2114078;28;20051;-41
2022/12/18 11:25:35;;;;;;;13.68;8.50;;;;;;;;;;2114036;28;20084;-42
2022/12/18 11:26:37;;;;;;;;;;;;;;;;;;2114336;28;20525;-41
2022/12/18 11:27:38;;;;;;;15.77;7.15;;;;;;;;;;2114283;28;19920;-46
2022/12/18 11:28:40;;;;;;;17.27;7.63;;;;;;;;;;2113934;28;20059;-46
2022/12/18 11:29:42;;;;;;;14.18;8.25;;;;;;;;;;2113978;28;20566;-46
2022/12/18 11:30:47;;;;;;;14.18;7.22;;;;;;;;;;2113946;28;20104;-46
2022/12/18 11:31:48;;;;;;;13.80;7.30;;;;;;;;;;2114439;28;20048;-46
2022/12/18 11:32:52;;;;;;;17.35;8.50;;;;;;;;;;2114079;28;20078;-46
2022/12/18 11:33:59;;;;;;;15.73;8.07;;;;;;;;;;2114224;28;20047;-46
2022/12/18 11:35:23;;;;;;;14.98;7.80;;;;;;;;;;2113946;28;20059;-50
2022/12/18 11:36:25;;;;;;;16.08;8.25;;;;;;;;;;2113926;28;20052;-47
2022/12/18 11:37:27;;;;;;;16.58;8.00;;;;;;;;;;2114029;28;20450;-41
2022/12/18 11:38:29;;;;;;;15.05;8.02;;;;;;;;;;2114054;28;20044;-42
2022/12/18 11:39:32;;;;;;;16.30;8.40;;;;;;;;;;2114161;28;20052;-42
2022/12/18 11:40:35;;;;;;;17.77;8.88;;;;;;;;;;2113992;28;20047;-41
2022/12/18 11:43:08;;;;;;;17.02;8.95;;;;;;;;;;2114067;28;20051;-42
2022/12/18 11:44:11;;;;;;;15.65;8.50;;;;;;;;;;2114316;28;20056;-42
2022/12/18 11:45:33;;;;;;;15.18;7.97;;;;;;;;;;2113948;28;20519;-42
2022/12/18 11:46:36;;;;;;;15.82;8.07;;;;;;;;;;2105521;28;20408;-42
2022/12/18 11:47:39;;;;;;;18.00;9.07;;;;;;;;;;2114114;28;20043;-47
2022/12/18 11:48:44;;;;;;;17.88;9.73;;;;;;;;;;2113946;28;20067;-46
2022/12/18 11:49:47;;;;;;;20.70;8.60;;;;;;;;;;2113934;28;20092;-47
2022/12/18 11:50:51;;;;;;;16.95;8.50;;;;;;;;;;2114129;28;20051;-46
2022/12/18 11:51:55;;;;;;;13.80;7.97;;;;;;;;;;2114121;28;20052;-46
2022/12/18 11:52:56;;;;;;;13.95;7.28;;;;;;;;;;2114330;28;20047;-46
2022/12/18 11:54:10;;;;;;;16.08;8.48;;;;;;;;;;2115379;28;20397;-46
2022/12/18 11:55:11;;;;;;;17.77;8.90;;;;;;;;;;2115298;28;20407;-45
2022/12/18 11:56:21;;;;;;;13.95;9.15;;;;;;;;;;2115202;28;20053;-46
2022/12/18 11:57:27;;;;;;;12.73;7.85;;;;;;;;;;2115578;28;20058;-41
2022/12/18 11:58:36;;;;;;;16.77;8.40;;;;;;;;;;2115432;28;20054;-41
2022/12/18 11:59:40;;;;;;;13.52;8.07;;;;;;;;;;2115320;28;20409;-42
2022/12/18 12:00:45;;;;;;;16.75;8.32;;;;;;;;;;2115002;28;20080;-42
2022/12/18 12:01:50;;;;;;;13.88;7.38;;;;;;;;;;2115234;28;20141;-42
2022/12/18 12:03:09;;;;;;;14.07;8.40;;;;;;;;;;2115277;28;20127;-42
2022/12/18 12:04:31;;;;;;;17.52;8.68;;;;;;;;;;2098360;28;20047;-41
2022/12/18 12:05:40;;;;;;;17.88;8.65;;;;;;;;;;2107361;28;20079;-41
2022/12/18 12:06:47;;;;;;;15.55;8.55;;;;;;;;;;2115213;28;20059;-47
2022/12/18 12:07:53;;;;;;;16.88;8.98;;;;;;;;;;2115298;28;20050;-46
2022/12/18 12:09:01;;;;;;;15.25;8.73;;;;;;;;;;2115293;28;20509;-47
2022/12/18 12:10:09;;;;;;;13.60;8.13;;;;;;;;;;2115647;28;20080;-42
2022/12/18 12:11:15;;;;;;;16.60;8.68;;;;;;;;;;2115220;28;20050;-42
2022/12/18 12:12:24;;;;;;;13.23;7.15;;;;;;;;;;2115529;28;20040;-42
2022/12/18 12:13:35;;;;;;;16.23;8.55;;;;;;;;;;2115242;28;20044;-42
2022/12/18 12:14:44;;;;;;;18.35;8.90;;;;;;;;;;2115380;28;20043;-42
2022/12/18 12:15:51;;;;;;;21.38;9.80;;;;;;;;;;2115148;28;20055;-41
2022/12/18 12:16:57;;;;;;;20.25;9.45;;;;;;;;;;2115036;28;20058;-42
2022/12/18 12:18:01;;;;;;;15.35;8.43;;;;;;;;;;2115141;28;20043;-41
2022/12/18 12:19:15;;;;;;;14.68;8.00;;;;;;;;;;2115226;28;20452;-42
2022/12/18 12:20:20;;;;;;;14.80;7.85;;;;;;;;;;2115130;28;20051;-41
2022/12/18 12:21:23;;;;;;;13.90;7.55;;;;;;;;;;2115226;28;20047;-41
2022/12/18 12:22:29;;;;;;;14.30;7.70;;;;;;;;;;2115132;28;20492;-41
2022/12/18 12:23:34;;;;;;;14.65;8.07;;;;;;;;;;2115234;28;20040;-41
2022/12/18 12:24:43;;;;;;;14.60;8.77;;;;;;;;;;2115328;28;20047;-41
2022/12/18 12:25:48;;;;;;;17.63;9.02;;;;;;;;;;2115385;28;20052;-41
2022/12/18 12:26:52;;;;;;;14.43;8.45;;;;;;;;;;2115430;28;20044;-41
2022/12/18 12:27:59;;;;;;;19.00;8.55;;;;;;;;;;2115083;28;20423;-41
2022/12/18 12:29:03;;;;;;;18.23;9.65;;;;;;;;;;2115031;28;20552;-41
2022/12/18 12:30:18;;;;;;;17.17;8.98;;;;;;;;;;2115043;28;20408;-41
2022/12/18 12:31:25;;;;;;;16.70;7.78;;;;;;;;;;2115195;28;20104;-41
2022/12/18 12:32:34;;;;;;;14.13;7.93;;;;;;;;;;2115088;28;20615;-41
2022/12/18 12:33:42;;;;;;;16.35;9.15;;;;;;;;;;2115035;28;20047;-42
2022/12/18 12:34:51;;;;;;;17.38;8.40;;;;;;;;;;2115532;28;20067;-46
2022/12/18 12:36:02;;;;;;;14.35;8.30;;;;;;;;;;2114962;28;20051;-50
2022/12/18 12:37:11;;;;;;;14.02;8.27;;;;;;;;;;2115014;28;20381;-46
2022/12/18 12:38:14;;;;;;;14.77;8.23;;;;;;;;;;2115022;28;20488;-46
2022/12/18 12:39:18;;;;;;;16.77;9.07;;;;;;;;;;2115207;28;20044;-46
2022/12/18 12:40:24;;;;;;;16.92;9.20;;;;;;;;;;2115150;28;20048;-46
2022/12/18 12:43:15;;;;;;;17.92;8.98;;;;;;;;;;2115347;28;20052;-46
2022/12/18 12:44:17;;;;;;;15.73;8.95;;;;;;;;;;2115119;28;20048;-46
2022/12/18 12:45:22;;;;;;;15.13;8.52;;;;;;;;;;2114956;28;20079;-46
2022/12/18 12:46:25;;;;;;;16.33;8.80;;;;;;;;;;2114916;28;20051;-46
2022/12/18 12:47:28;;;;;;;17.67;8.57;;;;;;;;;;2114928;28;20089;-46
2022/12/18 12:48:36;;;;;;;14.93;8.30;;;;;;;;;;2115309;28;20048;-41
2022/12/18 12:49:38;;;;;;;17.55;9.65;;;;;;;;;;2114849;28;20542;-41
2022/12/18 12:50:42;;;;;;;20.15;10.90;;;;;;;;;;2115027;28;20059;-41
2022/12/18 12:51:44;;;;;;;17.83;9.50;;;;;;;;;;2115232;28;20043;-46
2022/12/18 12:52:47;;;;;;;15.52;8.90;;;;;;;;;;2115086;28;20070;-46
2022/12/18 12:53:49;;;;;;;16.17;9.07;;;;;;;;;;2114935;28;20543;-45
2022/12/18 12:54:50;;;;;;;15.77;7.88;;;;;;;;;;2115200;28;20036;-45
2022/12/18 12:55:52;;;;;;;13.80;7.45;;;;;;;;;;2115049;28;20035;-45
2022/12/18 12:57:00;;;;;;;12.07;7.18;;;;;;;;;;2114716;28;20488;-46
2022/12/18 12:58:05;;;;;;;22.30;8.25;;;;;;;;;;2115087;28;20039;-47
2022/12/18 12:59:14;;;;;;;15.25;8.48;;;;;;;;;;2114952;28;20096;-46
2022/12/18 13:00:16;;;;;;;16.75;8.63;;;;;;;;;;2115087;28;20044;-48
2022/12/18 13:01:17;;;;;;;;;;;;;;;;;;2115289;28;20530;-46
2022/12/18 13:02:27;;;;;;;15.88;7.78;;;;;;;;;;2115007;28;19920;-47
2022/12/18 13:03:34;;;;;;;18.70;9.20;;;;;;;;;;2114937;28;20048;-46
2022/12/18 13:04:40;;;;;;;14.32;7.80;;;;;;;;;;2115173;28;20055;-47
2022/12/18 13:05:46;;;;;;;17.02;8.85;;;;;;;;;;2114977;28;20132;-46
2022/12/18 13:06:50;;;;;;;14.70;7.72;;;;;;;;;;2114911;28;20055;-46
2022/12/18 13:07:53;;;;;;;15.48;8.35;;;;;;;;;;2114847;28;20046;-50
2022/12/18 13:08:57;;;;;;;13.75;8.10;;;;;;;;;;2115122;28;20047;-47
2022/12/18 13:10:13;;;;;;;17.15;8.75;;;;;;;;;;2114923;28;20305;-46
2022/12/18 13:12:56;;;;;;;17.25;9.30;;;;;;;;;;2114814;28;20459;-47
2022/12/18 13:13:57;;;;;;;16.40;8.85;;;;;;;;;;2114918;28;20471;-46
2022/12/18 13:15:11;;;;;;;19.13;9.75;;;;;;;;;;2114915;28;20043;-47
2022/12/18 13:16:12;;;;;;;19.27;10.70;;;;;;;;;;2114798;28;20047;-48
2022/12/18 13:17:30;;;;;;;15.65;10.18;;;;;;;;;;2114689;28;20043;-47
2022/12/18 13:18:32;;;;;;;19.85;10.73;;;;;;;;;;2114918;28;20122;-46
2022/12/18 13:19:33;;;;;;;16.25;8.50;;;;;;;;;;2114966;28;20050;-41
2022/12/18 13:20:35;;;;;;;17.70;9.27;;;;;;;;;;2114697;28;20423;-41
2022/12/18 13:21:36;;;;;;;18.75;10.85;;;;;;;;;;2114724;28;20043;-42
2022/12/18 13:22:38;;;;;;;35.88;17.08;;;;;;;;;;2115195;28;20046;-46
2022/12/18 13:23:40;;;;;;;25.40;13.05;;;;;;;;;;2114607;28;20047;-47
2022/12/18 13:24:42;;;;;;;39.10;19.48;;;;;;;;;;2114886;28;20126;-46
2022/12/18 13:25:44;;;;;;;23.35;13.93;;;;;;;;;;2114715;28;20054;-48
2022/12/18 13:26:45;;;;;;;27.70;14.07;;;;;;;;;;2114578;28;20044;-46
2022/12/18 13:27:59;;;;;;;19.27;10.95;;;;;;;;;;2114664;28;20381;-46
2022/12/18 13:29:05;;;;;;;27.00;14.77;;;;;;;;;;2114823;28;20422;-47
2022/12/18 13:30:22;;;;;;;35.05;18.45;;;;;;;;;;2114822;28;20055;-41
2022/12/18 13:31:42;;;;;;;17.40;9.82;;;;;;;;;;2114768;28;20131;-41
2022/12/18 13:32:44;;;;;;;21.08;10.65;;;;;;;;;;2114594;28;20369;-40
2022/12/18 13:33:46;;;;;;;24.95;12.38;;;;;;;;;;2114835;28;20047;-41
2022/12/18 13:35:25;;;;;;;23.15;11.05;;;;;;;;;;2114709;28;20072;-42
2022/12/18 13:36:28;;;;;;;26.50;12.40;;;;;;;;;;2114694;28;20052;-42
2022/12/18 13:37:51;;;;;;;49.50;22.17;;;;;;;;;;2114560;28;20039;-41
2022/12/18 13:39:26;;;;;;;108.18;44.47;;;;;;;;;;2114781;28;20420;-41
2022/12/18 13:40:55;;;;;;;89.18;35.97;;;;;;;;;;2114849;28;20039;-41
2022/12/18 13:43:12;;;;;;;269.55;84.45;;;;;;;;;;2114904;28;20050;-46
2022/12/18 13:43:35;;;;;;;134.68;54.17;;;;;;;;;;2114923;28;20055;-47